Time;durP1;ratioP1;P1;durP2;ratioP2;P2;SDS_P1;SDS_P2;PMS_P1;PMS_P2;Temp;Humidity;BMP_temperature;BMP_pressure;BME280_temperature;BME280_humidity;BME280_pressure;Samples;Min_cycle;Max_cycle;Signal;HPM_P1;HPM_P2
2021/05/16 00:00:35;;;;;;;9.35;8.10;;;13.40;99.90;;;;;;1832560;76;21200;-77
2021/05/16 00:03:03;;;;;;;8.00;7.10;;;13.30;99.90;;;;;;1832829;76;21153;-76
2021/05/16 00:05:32;;;;;;;7.97;7.15;;;13.20;99.90;;;;;;1834837;76;21149;-77
2021/05/16 00:08:00;;;;;;;9.25;7.33;;;13.10;99.90;;;;;;1834933;76;21607;-77
2021/05/16 00:10:28;;;;;;;7.47;6.67;;;13.00;99.90;;;;;;1842080;76;21779;-77
2021/05/16 00:12:59;;;;;;;8.45;7.53;;;12.90;99.90;;;;;;1837373;76;21074;-77
2021/05/16 00:15:28;;;;;;;8.68;7.78;;;12.90;99.90;;;;;;1835087;76;21099;-78
2021/05/16 00:17:57;;;;;;;8.43;7.45;;;12.90;99.90;;;;;;1835113;76;21114;-77
2021/05/16 00:20:27;;;;;;;9.33;7.35;;;12.90;99.90;;;;;;1835486;76;21562;-77
2021/05/16 00:22:56;;;;;;;9.95;8.05;;;12.90;99.90;;;;;;1835552;76;21499;-77
2021/05/16 00:25:24;;;;;;;8.58;7.50;;;12.80;99.90;;;;;;1842441;76;21078;-77
2021/05/16 00:27:52;;;;;;;13.60;8.03;;;12.80;99.90;;;;;;1835582;76;21480;-77
2021/05/16 00:30:22;;;;;;;11.18;8.43;;;12.70;99.90;;;;;;1838916;76;21034;-77
2021/05/16 00:32:50;;;;;;;9.25;7.37;;;12.70;99.90;;;;;;1834951;76;21042;-78
2021/05/16 00:35:19;;;;;;;12.40;7.47;;;12.70;99.90;;;;;;1834980;76;21054;-77
2021/05/16 00:37:48;;;;;;;8.48;7.03;;;12.80;99.90;;;;;;1839396;76;21105;-77
2021/05/16 00:40:16;;;;;;;7.67;6.75;;;12.60;99.90;;;;;;1842545;76;21183;-77
2021/05/16 00:42:45;;;;;;;7.12;6.42;;;12.50;99.90;;;;;;1835429;76;21030;-76
2021/05/16 00:45:15;;;;;;;6.97;6.28;;;12.50;99.90;;;;;;1835320;76;21160;-76
2021/05/16 00:47:54;;;;;;;7.53;6.55;;;12.50;99.90;;;;;;1839693;76;21125;-77
2021/05/16 00:50:24;;;;;;;6.97;5.75;;;12.50;99.90;;;;;;1835974;76;21101;-77
2021/05/16 00:52:51;;;;;;;7.35;6.40;;;12.60;99.90;;;;;;1846008;76;21102;-77
2021/05/16 00:55:20;;;;;;;7.35;6.17;;;12.80;99.90;;;;;;1831903;76;21219;-77
2021/05/16 00:57:49;;;;;;;6.22;5.42;;;12.70;99.90;;;;;;1800084;73;21241;-76
2021/05/16 01:00:28;;;;;;;6.62;5.42;;;12.40;99.90;;;;;;1819200;77;21097;-76
2021/05/16 01:02:56;;;;;;;6.40;5.72;;;12.30;99.90;;;;;;1811073;78;21137;-76
2021/05/16 01:05:23;;;;;;;6.15;5.55;;;12.20;99.90;;;;;;1815802;77;21214;-77
2021/05/16 01:07:52;;;;;;;5.90;5.30;;;12.10;99.90;;;;;;1812484;78;21792;-76
2021/05/16 01:10:21;;;;;;;5.62;5.10;;;12.10;99.90;;;;;;1810781;78;21227;-76
2021/05/16 01:12:51;;;;;;;6.40;5.08;;;12.20;99.90;;;;;;1811708;78;21580;-76
2021/05/16 01:15:20;;;;;;;5.80;5.20;;;12.10;99.90;;;;;;1812869;78;21555;-77
2021/05/16 01:17:48;;;;;;;6.42;4.28;;;12.10;99.90;;;;;;1811100;78;21555;-76
2021/05/16 01:20:24;;;;;;;5.25;4.47;;;12.20;99.90;;;;;;1811307;78;21509;-76
2021/05/16 01:22:56;;;;;;;4.87;4.08;;;12.60;99.90;;;;;;1812750;78;21042;-76
2021/05/16 01:25:25;;;;;;;4.10;3.70;;;12.60;99.90;;;;;;1810003;78;21591;-76
2021/05/16 01:27:53;;;;;;;5.28;3.70;;;12.40;99.90;;;;;;1813720;78;21081;-76
2021/05/16 01:30:22;;;;;;;6.78;3.70;;;12.40;99.90;;;;;;1811750;78;21042;-77
2021/05/16 01:32:51;;;;;;;6.70;3.95;;;12.50;99.90;;;;;;1816472;77;21026;-77
2021/05/16 01:35:19;;;;;;;4.47;3.40;;;12.40;99.90;;;;;;1817778;77;21057;-76
2021/05/16 01:37:49;;;;;;;4.60;3.40;;;12.30;99.90;;;;;;1812296;78;21066;-77
2021/05/16 01:40:19;;;;;;;4.47;3.40;;;12.20;99.90;;;;;;1813559;78;21122;-77
2021/05/16 01:42:49;;;;;;;6.83;3.65;;;12.10;99.90;;;;;;1814166;78;21096;-77
2021/05/16 01:45:18;;;;;;;3.52;3.15;;;12.00;99.90;;;;;;1809820;78;21673;-77
2021/05/16 01:47:46;;;;;;;3.47;3.05;;;12.10;99.90;;;;;;1815244;77;21182;-77
2021/05/16 01:50:16;;;;;;;4.53;2.87;;;12.00;99.90;;;;;;1813369;77;21117;-77
2021/05/16 01:52:46;;;;;;;4.80;3.10;;;12.00;99.90;;;;;;1815582;78;21121;-76
2021/05/16 01:55:16;;;;;;;4.70;3.12;;;12.10;99.90;;;;;;1808514;78;21132;-77
2021/05/16 01:57:46;;;;;;;5.92;3.10;;;12.10;99.90;;;;;;1808246;78;21226;-76
2021/05/16 02:00:23;;;;;;;4.12;3.20;;;12.00;99.90;;;;;;1813156;78;21191;-75
2021/05/16 02:02:52;;;;;;;6.03;3.25;;;11.90;99.90;;;;;;1811693;78;21535;-76
2021/05/16 02:05:19;;;;;;;6.72;3.47;;;12.20;99.90;;;;;;1813074;78;21503;-76
2021/05/16 02:07:50;;;;;;;6.75;3.02;;;12.20;99.90;;;;;;1812090;78;21090;-76
2021/05/16 02:10:19;;;;;;;2.95;2.75;;;12.10;99.90;;;;;;1813564;78;21586;-76
2021/05/16 02:12:47;;;;;;;5.10;3.20;;;12.10;99.90;;;;;;1809965;78;21047;-76
2021/05/16 02:15:15;;;;;;;4.08;3.00;;;12.00;99.90;;;;;;1811221;78;21109;-76
2021/05/16 02:17:43;;;;;;;4.30;2.95;;;12.00;99.90;;;;;;1810548;78;21193;-76
2021/05/16 02:20:14;;;;;;;3.72;2.75;;;11.90;99.90;;;;;;1812890;78;21558;-76
2021/05/16 02:22:42;;;;;;;5.12;2.77;;;11.90;99.90;;;;;;1813820;78;21082;-76
2021/05/16 02:25:11;;;;;;;3.70;2.85;;;11.90;99.90;;;;;;1811518;78;21148;-76
2021/05/16 02:27:39;;;;;;;3.65;2.52;;;11.80;99.90;;;;;;1814312;78;21144;-75
2021/05/16 02:30:09;;;;;;;2.95;2.65;;;11.90;99.90;;;;;;1811573;78;21152;-76
2021/05/16 02:32:38;;;;;;;3.75;2.77;;;11.80;99.90;;;;;;1811250;78;21061;-76
2021/05/16 02:35:09;;;;;;;3.22;2.92;;;11.80;99.90;;;;;;1812893;78;21218;-76
2021/05/16 02:37:37;;;;;;;3.80;2.80;;;11.80;99.90;;;;;;1811835;78;21152;-76
2021/05/16 02:40:06;;;;;;;5.40;2.77;;;11.70;99.90;;;;;;1812665;78;21168;-76
2021/05/16 02:42:34;;;;;;;3.37;2.77;;;11.60;99.90;;;;;;1811382;78;21077;-76
2021/05/16 02:45:01;;;;;;;6.78;3.08;;;11.60;99.90;;;;;;1812910;78;21053;-76
2021/05/16 02:47:29;;;;;;;4.42;2.67;;;11.60;99.90;;;;;;1810900;78;21109;-76
2021/05/16 02:49:57;;;;;;;3.95;3.17;;;11.60;99.90;;;;;;1811467;78;21109;-76
2021/05/16 02:52:24;;;;;;;3.72;3.05;;;11.70;99.90;;;;;;1812224;78;21124;-76
2021/05/16 02:54:52;;;;;;;3.72;3.15;;;11.60;99.90;;;;;;1812853;78;21614;-76
2021/05/16 02:57:21;;;;;;;4.92;3.30;;;11.60;99.90;;;;;;1810727;78;21242;-76
2021/05/16 02:59:49;;;;;;;7.67;2.98;;;11.60;99.90;;;;;;1809913;78;21252;-76
2021/05/16 03:02:17;;;;;;;5.70;3.55;;;11.50;99.90;;;;;;1811228;78;22422;-76
2021/05/16 03:04:45;;;;;;;3.50;3.05;;;11.60;99.90;;;;;;1811671;78;21894;-76
2021/05/16 03:07:12;;;;;;;3.35;2.90;;;11.50;99.90;;;;;;1812602;78;21242;-76
2021/05/16 03:09:40;;;;;;;5.22;3.00;;;11.50;99.90;;;;;;1810965;78;21160;-76
2021/05/16 03:12:10;;;;;;;7.90;2.77;;;11.40;99.90;;;;;;1811057;78;21109;-76
2021/05/16 03:14:38;;;;;;;4.08;2.83;;;11.50;99.90;;;;;;1813093;78;21160;-76
2021/05/16 03:17:06;;;;;;;6.00;3.27;;;11.50;99.90;;;;;;1811238;78;21180;-76
2021/05/16 03:19:33;;;;;;;7.58;3.35;;;11.50;99.90;;;;;;1812747;78;21144;-76
2021/05/16 03:22:02;;;;;;;4.33;3.27;;;11.50;99.90;;;;;;1813802;78;21650;-76
2021/05/16 03:24:30;;;;;;;5.50;3.60;;;11.60;99.90;;;;;;1810328;78;21167;-76
2021/05/16 03:26:57;;;;;;;4.72;3.60;;;11.80;99.90;;;;;;1813282;78;21176;-76
2021/05/16 03:29:25;;;;;;;4.15;3.65;;;12.00;99.90;;;;;;1811879;78;21018;-76
2021/05/16 03:31:52;;;;;;;4.10;3.58;;;12.10;99.90;;;;;;1811620;78;21638;-76
2021/05/16 03:34:20;;;;;;;5.10;4.55;;;12.00;99.90;;;;;;1810555;78;21062;-76
2021/05/16 03:36:47;;;;;;;8.05;4.42;;;12.10;99.90;;;;;;1815624;77;21105;-76
2021/05/16 03:39:15;;;;;;;5.50;4.50;;;12.10;99.90;;;;;;1819602;77;21147;-76
2021/05/16 03:41:42;;;;;;;5.70;4.55;;;12.30;99.90;;;;;;1811965;78;21199;-76
2021/05/16 03:44:10;;;;;;;9.10;4.65;;;12.20;99.90;;;;;;1810702;78;21078;-76
2021/05/16 03:46:37;;;;;;;4.90;4.30;;;12.10;99.90;;;;;;1809784;78;21137;-76
2021/05/16 03:49:05;;;;;;;7.35;4.92;;;12.20;99.90;;;;;;1811688;78;21574;-76
2021/05/16 03:51:33;;;;;;;7.97;4.90;;;12.30;99.90;;;;;;1810899;78;21364;-76
2021/05/16 03:54:00;;;;;;;6.10;5.15;;;12.60;99.90;;;;;;1815159;77;21132;-76
2021/05/16 03:56:28;;;;;;;6.35;5.20;;;12.70;99.90;;;;;;1811348;78;21177;-76
2021/05/16 03:58:55;;;;;;;7.42;5.10;;;12.60;99.90;;;;;;1810038;78;21575;-76
2021/05/16 04:01:23;;;;;;;7.50;6.05;;;12.50;99.90;;;;;;1809337;78;21124;-76
2021/05/16 04:03:50;;;;;;;7.90;5.33;;;12.40;99.90;;;;;;1811379;78;21112;-76
2021/05/16 04:06:18;;;;;;;6.58;5.87;;;12.40;99.90;;;;;;1809628;78;21133;-76
2021/05/16 04:08:45;;;;;;;8.60;6.53;;;12.60;99.90;;;;;;1811852;78;21582;-76
2021/05/16 04:11:13;;;;;;;6.17;5.50;;;12.60;99.90;;;;;;1810915;78;21148;-76
2021/05/16 04:13:41;;;;;;;8.95;5.60;;;12.40;99.90;;;;;;1810023;78;22318;-76
2021/05/16 04:16:09;;;;;;;8.15;6.28;;;12.30;99.90;;;;;;1811985;78;21105;-76
2021/05/16 04:18:38;;;;;;;8.33;7.10;;;12.30;99.90;;;;;;1811030;78;21062;-77
2021/05/16 04:21:06;;;;;;;9.25;6.50;;;12.60;99.90;;;;;;1810670;78;21622;-76
2021/05/16 04:23:35;;;;;;;9.25;6.87;;;12.80;99.90;;;;;;1814367;78;21105;-76
2021/05/16 04:26:03;;;;;;;8.60;7.15;;;12.70;99.90;;;;;;1811860;78;21241;-76
2021/05/16 04:28:50;;;;;;;10.00;8.30;;;12.70;99.90;;;;;;1812550;78;21697;-76
2021/05/16 04:31:17;;;;;;;11.55;7.85;;;12.80;99.90;;;;;;1885981;76;21077;-76
2021/05/16 04:33:45;;;;;;;11.65;8.43;;;12.90;99.90;;;;;;1885898;76;21019;-76
2021/05/16 04:36:12;;;;;;;10.78;9.03;;;12.60;99.90;;;;;;1891083;74;21178;-76
2021/05/16 04:38:40;;;;;;;12.07;10.50;;;12.70;99.90;;;;;;1919460;74;21093;-76
2021/05/16 04:41:07;;;;;;;12.37;10.45;;;12.80;99.90;;;;;;1918209;74;21022;-76
2021/05/16 04:43:35;;;;;;;9.95;8.95;;;12.80;99.90;;;;;;1920160;73;21031;-76
2021/05/16 04:46:02;;;;;;;11.12;10.03;;;12.70;99.90;;;;;;1918957;74;21612;-76
2021/05/16 04:48:30;;;;;;;12.88;10.32;;;12.60;99.90;;;;;;1918273;73;21129;-76
2021/05/16 04:50:57;;;;;;;12.75;11.38;;;12.60;99.90;;;;;;1919860;73;21151;-76
2021/05/16 04:53:28;;;;;;;12.50;10.93;;;12.70;99.90;;;;;;1919505;74;21207;-76
2021/05/16 04:55:54;;;;;;;12.50;11.12;;;12.60;99.90;;;;;;1917042;73;21682;-76
2021/05/16 04:58:22;;;;;;;15.55;12.03;;;12.50;99.90;;;;;;1919417;74;22283;-76
2021/05/16 05:00:50;;;;;;;14.20;12.70;;;12.50;99.90;;;;;;1915203;73;22403;-76
2021/05/16 05:03:20;;;;;;;15.35;13.75;;;12.50;99.90;;;;;;1917185;74;21153;-76
2021/05/16 05:05:47;;;;;;;16.73;14.28;;;12.40;99.90;;;;;;1916273;74;21218;-76
2021/05/16 05:08:15;;;;;;;16.77;14.05;;;12.40;99.90;;;;;;1917990;73;21250;-76
2021/05/16 05:10:42;;;;;;;15.83;13.68;;;12.50;99.90;;;;;;1920068;74;21120;-76
2021/05/16 05:13:10;;;;;;;18.90;14.20;;;12.60;99.90;;;;;;1918973;74;21096;-76
2021/05/16 05:15:37;;;;;;;18.15;15.78;;;12.80;99.90;;;;;;1917831;74;21166;-76
2021/05/16 05:18:05;;;;;;;20.00;15.28;;;12.70;99.90;;;;;;1913760;74;21121;-76
2021/05/16 05:20:33;;;;;;;19.37;15.00;;;12.70;99.90;;;;;;1918955;73;21097;-76
2021/05/16 05:23:00;;;;;;;17.87;15.23;;;12.60;99.90;;;;;;1917464;74;21088;-76
2021/05/16 05:25:30;;;;;;;21.93;16.75;;;12.70;99.90;;;;;;1919850;73;21141;-76
2021/05/16 05:27:58;;;;;;;22.05;16.90;;;12.80;99.90;;;;;;1917788;74;21097;-76
2021/05/16 05:30:26;;;;;;;25.08;16.65;;;12.80;99.90;;;;;;1920670;73;21583;-76
2021/05/16 05:32:54;;;;;;;23.20;17.05;;;12.80;99.90;;;;;;1919619;74;21094;-76
2021/05/16 05:35:22;;;;;;;21.45;15.93;;;12.70;99.90;;;;;;1916379;73;21089;-76
2021/05/16 05:37:50;;;;;;;21.52;15.95;;;12.80;99.90;;;;;;1913383;74;21207;-76
2021/05/16 05:40:20;;;;;;;20.02;15.65;;;13.00;99.90;;;;;;1916088;73;21132;-76
2021/05/16 05:42:48;;;;;;;21.95;17.60;;;13.00;99.90;;;;;;1914685;73;21113;-77
2021/05/16 05:45:15;;;;;;;19.85;16.02;;;12.80;99.90;;;;;;1917958;74;21069;-77
2021/05/16 05:47:43;;;;;;;23.70;17.02;;;12.50;99.90;;;;;;1917890;73;21211;-75
2021/05/16 05:50:11;;;;;;;25.90;18.00;;;12.80;99.90;;;;;;1916204;73;21646;-75
2021/05/16 05:52:39;;;;;;;22.48;17.45;;;12.90;99.90;;;;;;1917204;73;21031;-75
2021/05/16 05:55:07;;;;;;;24.05;15.58;;;12.80;99.90;;;;;;1916372;74;21170;-75
2021/05/16 05:57:35;;;;;;;23.83;17.85;;;12.80;99.90;;;;;;1916712;73;21109;-75
2021/05/16 06:00:04;;;;;;;25.05;18.23;;;12.80;99.90;;;;;;1916307;74;21624;-75
2021/05/16 06:02:31;;;;;;;24.18;19.27;;;12.80;99.90;;;;;;1914477;74;21085;-75
2021/05/16 06:04:59;;;;;;;25.70;18.75;;;13.00;99.90;;;;;;1917529;74;21089;-75
2021/05/16 06:07:28;;;;;;;22.45;18.30;;;13.00;99.90;;;;;;1921031;74;21100;-75
2021/05/16 06:09:55;;;;;;;27.87;19.52;;;12.90;99.90;;;;;;1928149;73;21112;-75
2021/05/16 06:12:25;;;;;;;29.60;20.37;;;12.90;99.90;;;;;;1924975;73;21511;-76
2021/05/16 06:14:53;;;;;;;34.05;20.95;;;12.90;99.90;;;;;;1920773;74;21077;-75
2021/05/16 06:17:21;;;;;;;29.02;20.12;;;12.80;99.90;;;;;;1922529;73;21140;-75
2021/05/16 06:19:49;;;;;;;29.25;20.48;;;12.90;99.90;;;;;;1925797;73;21101;-76
2021/05/16 06:22:16;;;;;;;27.60;20.60;;;13.00;99.90;;;;;;1916858;74;21030;-75
2021/05/16 06:24:44;;;;;;;25.90;19.85;;;13.10;99.90;;;;;;1917991;73;21132;-76
2021/05/16 06:27:11;;;;;;;25.35;18.77;;;13.10;99.90;;;;;;1920165;73;21097;-76
2021/05/16 06:29:39;;;;;;;27.65;19.10;;;13.20;99.90;;;;;;1919402;73;21166;-75
2021/05/16 06:32:09;;;;;;;29.30;19.23;;;13.20;99.90;;;;;;1917876;74;21116;-75
2021/05/16 06:34:36;;;;;;;29.95;18.40;;;13.30;99.90;;;;;;1918784;74;21215;-75
2021/05/16 06:37:04;;;;;;;26.42;18.52;;;13.30;99.90;;;;;;1915749;74;21090;-75
2021/05/16 06:39:32;;;;;;;27.98;18.23;;;13.30;99.90;;;;;;1917715;74;21085;-75
2021/05/16 06:42:00;;;;;;;27.48;18.90;;;13.20;99.90;;;;;;1919588;73;21070;-75
2021/05/16 06:44:28;;;;;;;33.65;17.40;;;13.20;99.90;;;;;;1918416;73;21078;-75
2021/05/16 06:46:56;;;;;;;24.72;16.52;;;13.30;99.90;;;;;;1915537;74;21287;-75
2021/05/16 06:49:23;;;;;;;28.42;17.73;;;13.40;99.90;;;;;;1919003;74;21744;-75
2021/05/16 06:51:51;;;;;;;27.87;16.55;;;13.30;99.90;;;;;;1915143;73;21557;-76
2021/05/16 06:54:18;;;;;;;29.75;18.05;;;13.30;99.90;;;;;;1916505;73;21583;-76
2021/05/16 06:56:46;;;;;;;24.87;16.73;;;13.30;99.90;;;;;;1918729;73;21117;-75
2021/05/16 06:59:13;;;;;;;26.17;16.97;;;13.20;99.90;;;;;;1917430;74;21120;-75
2021/05/16 07:01:41;;;;;;;26.60;17.02;;;13.20;99.90;;;;;;1919246;74;21501;-76
2021/05/16 07:04:08;;;;;;;28.80;17.23;;;13.30;99.90;;;;;;1918372;74;21155;-75
2021/05/16 07:06:36;;;;;;;29.12;16.52;;;13.30;99.90;;;;;;1919291;74;21183;-74
2021/05/16 07:09:04;;;;;;;27.95;16.35;;;13.30;99.90;;;;;;1920532;74;22253;-73
2021/05/16 07:11:31;;;;;;;25.40;15.00;;;13.40;99.90;;;;;;1920082;74;21383;-74
2021/05/16 07:13:59;;;;;;;30.97;15.20;;;13.40;99.90;;;;;;1919449;73;21519;-77
2021/05/16 07:16:26;;;;;;;29.00;14.65;;;13.30;99.90;;;;;;1918097;74;21132;-75
2021/05/16 07:18:54;;;;;;;27.67;13.83;;;13.30;99.90;;;;;;1915878;74;21097;-75
2021/05/16 07:21:21;;;;;;;23.38;13.75;;;13.30;99.90;;;;;;1915975;73;21528;-75
2021/05/16 07:23:49;;;;;;;30.00;15.43;;;13.30;99.90;;;;;;1919809;73;21093;-76
2021/05/16 07:26:17;;;;;;;28.62;14.87;;;13.40;99.90;;;;;;1918864;74;21102;-76
2021/05/16 07:28:44;;;;;;;29.12;15.18;;;13.40;99.90;;;;;;1920772;74;21179;-75
2021/05/16 07:31:12;;;;;;;23.98;14.18;;;13.50;99.90;;;;;;1919530;73;22056;-74
2021/05/16 07:33:40;;;;;;;25.52;14.35;;;13.50;99.90;;;;;;1920758;74;21054;-75
2021/05/16 07:36:08;;;;;;;25.80;14.18;;;13.70;99.90;;;;;;1920082;74;21090;-75
2021/05/16 07:38:36;;;;;;;26.62;15.00;;;13.70;99.90;;;;;;1916960;74;21108;-75
2021/05/16 07:41:04;;;;;;;26.10;13.78;;;13.70;99.90;;;;;;1915208;74;21489;-76
2021/05/16 07:43:31;;;;;;;23.90;13.70;;;13.90;99.90;;;;;;1920873;73;21024;-77
2021/05/16 07:45:59;;;;;;;24.43;13.48;;;14.10;99.90;;;;;;1919480;74;21570;-76
2021/05/16 07:48:29;;;;;;;26.37;12.58;;;14.40;99.90;;;;;;1921475;74;21023;-77
2021/05/16 07:50:58;;;;;;;30.75;12.65;;;14.50;99.90;;;;;;1918204;74;21054;-76
2021/05/16 07:53:27;;;;;;;16.65;10.65;;;14.60;99.90;;;;;;1919954;73;21062;-76
2021/05/16 07:55:54;;;;;;;22.27;10.70;;;14.60;99.90;;;;;;1919355;74;21113;-75
2021/05/16 07:58:22;;;;;;;21.65;11.65;;;14.70;99.90;;;;;;1918384;73;21090;-76
2021/05/16 08:00:49;;;;;;;22.00;11.03;;;14.70;99.90;;;;;;1914542;74;21050;-76
2021/05/16 08:03:18;;;;;;;22.77;11.93;;;14.40;99.90;;;;;;1920431;74;21171;-76
2021/05/16 08:05:45;;;;;;;20.90;11.50;;;14.50;99.90;;;;;;1917124;74;21109;-75
2021/05/16 08:08:13;;;;;;;22.67;10.88;;;14.40;99.90;;;;;;1916700;74;21637;-76
2021/05/16 08:10:41;;;;;;;20.65;10.55;;;14.50;99.90;;;;;;1919745;74;21093;-74
2021/05/16 08:13:09;;;;;;;24.80;11.53;;;14.40;99.90;;;;;;1918027;74;21094;-76
2021/05/16 08:15:36;;;;;;;24.00;11.45;;;14.30;99.90;;;;;;1917387;73;22017;-75
2021/05/16 08:18:04;;;;;;;25.77;11.68;;;14.10;99.90;;;;;;1916126;74;21586;-77
2021/05/16 08:20:33;;;;;;;25.48;12.00;;;14.00;99.90;;;;;;1915572;73;21114;-76
2021/05/16 08:23:01;;;;;;;21.62;11.10;;;13.90;99.90;;;;;;1917653;73;21089;-76
2021/05/16 08:25:31;;;;;;;21.05;10.60;;;13.90;99.90;;;;;;1916015;74;21149;-76
2021/05/16 08:27:59;;;;;;;20.95;11.48;;;14.00;99.90;;;;;;1917191;74;21161;-76
2021/05/16 08:30:28;;;;;;;21.82;11.20;;;14.10;99.90;;;;;;1918916;74;21058;-76
2021/05/16 08:32:56;;;;;;;19.40;10.45;;;14.10;99.90;;;;;;1918853;74;21077;-76
2021/05/16 08:35:24;;;;;;;20.77;11.63;;;14.20;99.90;;;;;;1919442;73;21604;-76
2021/05/16 08:37:51;;;;;;;23.80;12.03;;;14.00;99.90;;;;;;1918899;73;21198;-75
2021/05/16 08:40:20;;;;;;;23.73;12.10;;;14.10;99.90;;;;;;1918457;74;21341;-76
2021/05/16 08:42:47;;;;;;;24.75;11.28;;;14.00;99.90;;;;;;1920597;73;21602;-75
2021/05/16 08:45:15;;;;;;;24.50;11.60;;;14.10;99.90;;;;;;1919403;74;22059;-75
2021/05/16 08:47:45;;;;;;;26.73;11.80;;;14.10;99.90;;;;;;1918150;73;21083;-75
2021/05/16 08:50:15;;;;;;;20.23;11.12;;;14.10;99.90;;;;;;1920079;74;21182;-74
2021/05/16 08:52:43;;;;;;;23.10;10.43;;;14.10;99.90;;;;;;1923253;74;21151;-74
2021/05/16 08:55:13;;;;;;;20.50;10.43;;;14.40;99.90;;;;;;1918358;73;21109;-75
2021/05/16 08:57:42;;;;;;;19.20;8.83;;;14.50;99.90;;;;;;1919282;74;21105;-74
2021/05/16 09:00:15;;;;;;;16.97;9.18;;;14.50;99.90;;;;;;1918342;73;21171;-75
2021/05/16 09:03:11;;;;;;;16.12;9.53;;;14.50;99.90;;;;;;1917319;74;21238;-75
2021/05/16 09:05:48;;;;;;;17.90;9.55;;;14.40;99.90;;;;;;1917110;74;21520;-75
2021/05/16 09:08:18;;;;;;;16.25;8.35;;;14.30;99.90;;;;;;1918258;73;21652;-75
2021/05/16 09:10:56;;;;;;;16.02;7.40;;;14.50;99.90;;;;;;1922170;73;21045;-75
2021/05/16 09:13:23;;;;;;;11.70;6.95;;;14.40;99.90;;;;;;1913105;74;21117;-75
2021/05/16 09:16:05;;;;;;;13.83;7.03;;;14.60;99.90;;;;;;1914459;73;21074;-75
2021/05/16 09:18:41;;;;;;;17.07;7.10;;;14.70;99.90;;;;;;1920195;73;21649;-75
2021/05/16 09:21:27;;;;;;;16.60;7.25;;;15.00;99.90;;;;;;1917311;74;21057;-75
2021/05/16 09:24:05;;;;;;;18.40;7.87;;;14.90;99.90;;;;;;1918147;73;21034;-75
2021/05/16 09:26:35;;;;;;;19.35;8.00;;;14.80;99.90;;;;;;1921065;74;21585;-75
2021/05/16 09:29:28;;;;;;;18.07;8.78;;;14.60;99.90;;;;;;1919617;74;21108;-74
2021/05/16 09:31:57;;;;;;;18.62;8.35;;;14.60;99.90;;;;;;1918716;74;21096;-75
2021/05/16 09:34:25;;;;;;;13.95;7.35;;;14.30;99.90;;;;;;1919653;74;21524;-75
2021/05/16 09:36:55;;;;;;;17.85;8.10;;;14.40;99.90;;;;;;1918440;74;21594;-75
2021/05/16 09:39:27;;;;;;;16.77;7.70;;;14.50;99.90;;;;;;1918950;74;21089;-75
2021/05/16 09:42:17;;;;;;;21.12;8.38;;;14.30;99.90;;;;;;1914781;73;21174;-75
2021/05/16 09:44:53;;;;;;;13.90;7.83;;;14.40;99.90;;;;;;1916479;74;21160;-75
2021/05/16 09:47:23;;;;;;;14.98;8.23;;;14.30;99.90;;;;;;1916716;74;21565;-75
2021/05/16 09:49:56;;;;;;;17.62;8.80;;;14.20;99.90;;;;;;1914835;74;21026;-76
2021/05/16 09:52:30;;;;;;;16.67;8.33;;;14.20;99.90;;;;;;1914503;74;21683;-76
2021/05/16 09:55:02;;;;;;;21.23;8.95;;;14.30;99.90;;;;;;1908573;74;21077;-75
2021/05/16 09:57:34;;;;;;;18.20;7.80;;;14.40;99.90;;;;;;1913113;74;21674;-75
2021/05/16 10:00:04;;;;;;;21.12;7.80;;;14.50;99.90;;;;;;1913492;74;21101;-77
2021/05/16 10:02:31;;;;;;;18.15;7.60;;;14.60;99.90;;;;;;1917304;74;21027;-76
2021/05/16 10:05:01;;;;;;;16.80;7.37;;;14.60;99.90;;;;;;1917333;73;21670;-77
2021/05/16 10:07:30;;;;;;;19.15;8.48;;;14.60;99.90;;;;;;1909347;74;21247;-76
2021/05/16 10:09:59;;;;;;;18.12;8.55;;;14.50;99.90;;;;;;1918368;73;21085;-77
2021/05/16 10:12:28;;;;;;;23.47;9.58;;;14.50;99.90;;;;;;1921835;74;21131;-76
2021/05/16 10:15:04;;;;;;;20.55;10.93;;;14.40;99.90;;;;;;1920934;73;21510;-77
2021/05/16 10:17:36;;;;;;;27.30;12.07;;;14.30;99.90;;;;;;1922863;73;21206;-77
2021/05/16 10:20:12;;;;;;;21.62;10.90;;;14.10;99.90;;;;;;1920608;73;21121;-77
2021/05/16 10:22:40;;;;;;;13.15;7.67;;;14.00;99.90;;;;;;1920839;73;21104;-77
2021/05/16 10:25:08;;;;;;;19.32;9.25;;;13.90;99.90;;;;;;1917760;73;21633;-78
2021/05/16 10:27:46;;;;;;;21.70;11.22;;;13.70;99.90;;;;;;1923695;73;21077;-79
2021/05/16 10:30:15;;;;;;;24.63;11.70;;;13.80;99.90;;;;;;1918243;73;21827;-77
2021/05/16 10:32:51;;;;;;;20.85;11.03;;;13.80;99.90;;;;;;1916288;73;21645;-78
2021/05/16 10:35:19;;;;;;;20.52;10.20;;;13.70;99.90;;;;;;1917382;73;21338;-77
2021/05/16 10:37:50;;;;;;;11.38;5.42;;;13.60;99.90;;;;;;1916892;73;21187;-77
2021/05/16 10:40:24;;;;;;;8.15;4.28;;;13.50;99.90;;;;;;1915127;74;21516;-77
2021/05/16 10:42:54;;;;;;;8.13;3.75;;;13.50;99.90;;;;;;1913314;73;21164;-76
2021/05/16 10:45:34;;;;;;;10.63;4.03;;;13.50;99.90;;;;;;1921116;74;21539;-76
2021/05/16 10:48:09;;;;;;;10.43;3.62;;;13.60;99.90;;;;;;1920877;74;21526;-76
2021/05/16 10:50:40;;;;;;;10.32;3.58;;;13.60;99.90;;;;;;1916028;74;21102;-72
2021/05/16 10:53:20;;;;;;;9.20;3.80;;;13.70;99.90;;;;;;1907949;74;21062;-72
2021/05/16 10:55:52;;;;;;;6.70;3.35;;;13.80;99.90;;;;;;1904963;73;21191;-73
2021/05/16 10:58:35;;;;;;;10.10;3.98;;;13.90;99.90;;;;;;1900177;74;21086;-73
2021/05/16 11:01:11;;;;;;;7.95;3.83;;;13.90;99.90;;;;;;1903035;74;21059;-73
2021/05/16 11:03:50;;;;;;;9.23;3.90;;;13.80;99.90;;;;;;1905365;74;21083;-73
2021/05/16 11:06:23;;;;;;;10.82;4.33;;;13.70;99.90;;;;;;1904270;74;21125;-72
2021/05/16 11:08:54;;;;;;;12.68;5.10;;;13.80;99.90;;;;;;1902565;74;21089;-72
2021/05/16 11:11:34;;;;;;;13.75;4.75;;;13.70;99.90;;;;;;1900648;74;21097;-72
2021/05/16 11:14:19;;;;;;;11.12;5.65;;;13.60;99.90;;;;;;1905185;74;21183;-72
2021/05/16 11:16:52;;;;;;;13.60;6.28;;;13.70;99.90;;;;;;1903891;74;21417;-73
2021/05/16 11:19:25;;;;;;;12.65;5.87;;;13.70;99.90;;;;;;1903888;74;21038;-73
2021/05/16 11:21:53;;;;;;;15.38;6.03;;;13.70;99.90;;;;;;1906789;74;21125;-73
2021/05/16 11:24:34;;;;;;;13.55;6.22;;;13.70;99.90;;;;;;1908244;74;21026;-72
2021/05/16 11:27:02;;;;;;;12.05;6.17;;;13.70;99.90;;;;;;1905839;74;21144;-73
2021/05/16 11:29:29;;;;;;;12.20;6.28;;;13.70;99.90;;;;;;1905411;75;21081;-72
2021/05/16 11:32:04;;;;;;;13.98;6.45;;;13.70;99.90;;;;;;1907170;74;21546;-73
2021/05/16 11:34:32;;;;;;;17.42;7.25;;;13.70;99.90;;;;;;1904119;74;21113;-73
2021/05/16 11:37:21;;;;;;;13.68;6.92;;;13.90;99.90;;;;;;1902092;74;21058;-73
2021/05/16 11:39:48;;;;;;;16.67;6.70;;;14.00;99.90;;;;;;1906168;75;21136;-72
2021/05/16 11:42:17;;;;;;;15.50;6.80;;;14.20;99.90;;;;;;1905168;75;21155;-73
2021/05/16 11:44:46;;;;;;;16.37;6.87;;;14.20;99.90;;;;;;1904906;74;21159;-73
2021/05/16 11:47:14;;;;;;;13.48;6.35;;;14.40;99.90;;;;;;1904616;74;21635;-74
2021/05/16 11:49:45;;;;;;;17.10;6.35;;;14.80;99.90;;;;;;1904141;74;21080;-74
2021/05/16 11:52:12;;;;;;;19.85;7.08;;;15.10;99.90;;;;;;1905777;73;21085;-74
2021/05/16 11:54:44;;;;;;;17.00;6.70;;;15.30;99.90;;;;;;1902068;74;21074;-73
2021/05/16 11:57:16;;;;;;;14.75;6.83;;;15.50;99.90;;;;;;1904257;74;21134;-73
2021/05/16 11:59:43;;;;;;;;;;;15.60;99.90;;;;;;1907913;74;21228;-72
2021/05/16 12:02:11;;;;;;;21.87;7.50;;;15.70;99.90;;;;;;1906792;74;20408;-72
2021/05/16 12:04:39;;;;;;;17.17;7.03;;;15.80;99.90;;;;;;1906034;74;21465;-72
2021/05/16 12:07:07;;;;;;;16.27;4.87;;;15.90;99.90;;;;;;1904756;74;21109;-73
2021/05/16 12:09:40;;;;;;;18.35;5.40;;;16.20;99.90;;;;;;1905054;74;21081;-72
2021/05/16 12:12:23;;;;;;;16.40;5.85;;;16.00;99.90;;;;;;1899018;74;21094;-73
2021/05/16 12:14:52;;;;;;;15.58;5.42;;;15.90;99.90;;;;;;1902399;74;21114;-74
2021/05/16 12:17:19;;;;;;;13.08;5.08;;;15.90;99.90;;;;;;1906215;74;21670;-73
2021/05/16 12:19:47;;;;;;;17.48;5.47;;;15.80;99.90;;;;;;1906625;74;21610;-72
2021/05/16 12:22:15;;;;;;;15.32;5.17;;;15.90;99.90;;;;;;1903065;73;21145;-72
2021/05/16 12:24:46;;;;;;;15.58;5.17;;;15.90;99.90;;;;;;1906083;74;21050;-72
2021/05/16 12:27:15;;;;;;;15.80;5.62;;;16.00;99.90;;;;;;1905382;73;21152;-72
2021/05/16 12:29:44;;;;;;;12.95;4.30;;;16.10;99.90;;;;;;1906782;74;21102;-73
2021/05/16 12:32:12;;;;;;;11.28;3.87;;;16.20;99.90;;;;;;1901239;74;21127;-72
2021/05/16 12:34:40;;;;;;;14.23;4.05;;;16.50;99.90;;;;;;1904526;74;21074;-72
2021/05/16 12:37:16;;;;;;;14.78;4.45;;;16.70;99.90;;;;;;1904221;73;21141;-72
2021/05/16 12:39:52;;;;;;;14.07;3.85;;;16.60;99.90;;;;;;1905587;74;21149;-72
2021/05/16 12:42:28;;;;;;;12.18;4.40;;;16.40;99.90;;;;;;1907413;73;21607;-72
2021/05/16 12:44:58;;;;;;;11.80;4.35;;;16.30;99.90;;;;;;1903393;74;21368;-73
2021/05/16 12:47:28;;;;;;;13.58;5.05;;;16.30;99.90;;;;;;1901761;74;21095;-73
2021/05/16 12:50:07;;;;;;;14.20;4.83;;;16.30;99.90;;;;;;1900224;74;21129;-73